Weather at Cherbourg-Maupertus Airport

Public forecast

Using degrees Celsius for public forecast. Weather courtesy of forecast.io.

Current aviation weather report (METAR) for Cherbourg-Maupertus Airport

Report is more than 6 hours old.

2022/11/14 15:30 (retrieved 2 years ago)

LFRC 141530Z AUTO 27010KT 9999 FEW008 BKN019 BKN024 11/10 Q1008 TEMPO 28015G25KT 3000 SHRA BKN005 BKN015TCU

Closest aviation forecast (TAF) to Cherbourg-Maupertus Airport

Forecast is more than 12 hours old.

Closest forecast is Le Havre Octeville Airport, 61.0 nm (113.1 km) E.

2023/02/22 19:06 (retrieved 1 year ago)

TAF TAF LFOH 221901Z 2219/2312 CNL